Marbury, Alabama
Current Conditions -  °F | °C
As of 6:35 PM on Tuesday 25 Nov 2014 (Local Time) from K1A9 Reporting Station
Scattered Clouds Scattered Clouds  
Wind Chill: 55°   Ceiling: Unl
Heat Index: 55°   Visibility: 10mi
Dew Point: 33°   Wind: 6mph
Humidity: 44%   Direction: 300°WNW
Pressure: 30.1"   Gusts: NA
Location:  32.7°N, 86.47°W
Report Text: K1A9 260035Z AUTO 30005KT 10SM SCT120 13/01 A3010 RMK AO2 T01250005
Loading
Personal Weather Stations






























Interactive Weather Map New forecast layout! Learn more

10-Day Weather Forecast

Advertisements
Track Severe Weather on mobile